createdAt,value
2023-03-27T00:00:00.483Z,6.2
2023-03-27T00:15:00.542Z,6.2
2023-03-27T00:30:00.443Z,6.2
2023-03-27T00:45:00.756Z,6.2
2023-03-27T01:00:00.461Z,6.1
2023-03-27T01:15:00.525Z,6.0
2023-03-27T01:30:00.441Z,6.0
2023-03-27T01:45:00.488Z,5.9
2023-03-27T02:00:17.837Z,5.8
2023-03-27T02:15:22.889Z,5.7
2023-03-27T02:30:00.508Z,5.6
2023-03-27T02:45:00.510Z,5.5
2023-03-27T03:00:00.542Z,5.4
2023-03-27T03:15:00.614Z,5.3
2023-03-27T03:30:00.473Z,5.3
2023-03-27T03:45:00.521Z,5.3
2023-03-27T04:00:00.463Z,5.2
2023-03-27T04:15:00.652Z,5.2
2023-03-27T04:30:00.477Z,5.1
2023-03-27T04:45:00.497Z,5.1
2023-03-27T05:00:01.045Z,5.1
2023-03-27T05:15:00.466Z,5.2
2023-03-27T05:30:00.492Z,5.2
2023-03-27T05:45:00.461Z,5.3
2023-03-27T06:00:00.502Z,5.4
2023-03-27T06:15:00.540Z,5.4
2023-03-27T06:30:00.467Z,5.3
2023-03-27T06:45:00.513Z,5.4
2023-03-27T07:00:02.233Z,5.6
2023-03-27T07:15:00.508Z,5.8
2023-03-27T07:30:00.444Z,6.0
2023-03-27T07:45:01.868Z,6.3
2023-03-27T08:00:00.476Z,6.7
2023-03-27T08:15:00.530Z,6.9
2023-03-27T08:30:00.478Z,7.2
2023-03-27T08:45:00.485Z,8.2
2023-03-27T09:00:00.465Z,9.3
2023-03-27T09:15:00.541Z,10.2
2023-03-27T09:30:05.219Z,10.9
2023-03-27T09:45:00.473Z,11.3
2023-03-27T10:00:00.538Z,11.3
2023-03-27T10:15:01.562Z,11.2
2023-03-27T10:30:00.502Z,10.9
2023-03-27T10:45:00.296Z,10.6
2023-03-27T11:00:00.246Z,9.8
2023-03-27T11:15:00.664Z,9.6
2023-03-27T11:30:00.577Z,9.6
2023-03-27T11:45:00.602Z,9.6
2023-03-27T12:00:00.573Z,9.7
2023-03-27T12:15:00.634Z,9.5
2023-03-27T12:30:01.108Z,9.4
2023-03-27T12:45:00.529Z,9.0
2023-03-27T13:00:00.506Z,8.9
2023-03-27T13:15:00.610Z,9.1
2023-03-27T13:30:00.560Z,9.4
2023-03-27T13:45:00.559Z,9.1
2023-03-27T14:00:00.544Z,8.8
2023-03-27T14:15:00.588Z,8.4
2023-03-27T14:30:00.520Z,8.0
2023-03-27T14:45:00.520Z,7.6
2023-03-27T15:00:00.610Z,7.5
2023-03-27T15:15:00.576Z,7.3
2023-03-27T15:30:00.742Z,7.1
2023-03-27T15:45:00.532Z,7.0
2023-03-27T16:00:00.600Z,6.8
2023-03-27T16:15:00.651Z,6.5
2023-03-27T16:30:00.536Z,6.2
2023-03-27T16:45:00.535Z,6.1
2023-03-27T17:00:00.534Z,5.7
2023-03-27T17:15:00.543Z,5.3
2023-03-27T17:30:00.526Z,5.0
2023-03-27T17:45:00.533Z,4.7
2023-03-27T18:00:00.565Z,4.4
2023-03-27T18:15:00.616Z,3.9
2023-03-27T18:30:00.554Z,3.6
2023-03-27T18:45:00.518Z,3.3
2023-03-27T19:00:00.580Z,3.3
2023-03-27T19:15:06.723Z,3.4
2023-03-27T19:30:00.536Z,3.3
2023-03-27T19:45:00.517Z,3.2
2023-03-27T20:00:00.598Z,3.1
2023-03-27T20:15:10.353Z,2.9
2023-03-27T20:30:00.508Z,2.8
2023-03-27T20:45:00.522Z,2.7
2023-03-27T21:00:00.490Z,2.6
2023-03-27T21:15:00.604Z,2.3
2023-03-27T21:30:00.511Z,2.1
2023-03-27T21:45:00.541Z,2.0
2023-03-27T22:00:00.504Z,2.0
2023-03-27T22:15:00.509Z,2.0
2023-03-27T22:30:00.585Z,1.8
2023-03-27T22:45:00.517Z,1.6
2023-03-27T23:00:00.520Z,1.3
2023-03-27T23:15:00.500Z,1.3
2023-03-27T23:30:00.510Z,1.1
2023-03-27T23:45:00.588Z,1.0
